sensor_id;sensor_type;location;lat;lon;timestamp;temperature;humidity
9425;DHT22;17139;52.140;11.636;2023-04-02T00:02:31;3.00;64.00
9425;DHT22;17139;52.140;11.636;2023-04-02T00:05:22;2.90;63.80
9425;DHT22;17139;52.140;11.636;2023-04-02T00:07:57;2.70;64.30
9425;DHT22;17139;52.140;11.636;2023-04-02T00:10:27;2.60;64.60
9425;DHT22;17139;52.140;11.636;2023-04-02T00:13:05;2.50;64.80
9425;DHT22;17139;52.140;11.636;2023-04-02T00:15:35;2.50;64.90
9425;DHT22;17139;52.140;11.636;2023-04-02T00:18:03;2.40;64.90
9425;DHT22;17139;52.140;11.636;2023-04-02T00:20:34;2.40;64.80
9425;DHT22;17139;52.140;11.636;2023-04-02T00:23:05;2.40;64.80
9425;DHT22;17139;52.140;11.636;2023-04-02T00:25:36;2.60;64.80
9425;DHT22;17139;52.140;11.636;2023-04-02T00:28:11;2.60;64.20
9425;DHT22;17139;52.140;11.636;2023-04-02T00:30:47;2.50;64.20
9425;DHT22;17139;52.140;11.636;2023-04-02T00:33:17;2.50;64.40
9425;DHT22;17139;52.140;11.636;2023-04-02T00:35:46;2.50;64.40
9425;DHT22;17139;52.140;11.636;2023-04-02T00:38:19;2.50;64.50
9425;DHT22;17139;52.140;11.636;2023-04-02T00:40:47;2.40;64.50
9425;DHT22;17139;52.140;11.636;2023-04-02T00:43:15;2.40;64.60
9425;DHT22;17139;52.140;11.636;2023-04-02T00:45:44;2.40;64.60
9425;DHT22;17139;52.140;11.636;2023-04-02T00:48:30;2.40;64.40
9425;DHT22;17139;52.140;11.636;2023-04-02T00:51:12;2.50;64.40
9425;DHT22;17139;52.140;11.636;2023-04-02T00:53:41;3.00;63.40
9425;DHT22;17139;52.140;11.636;2023-04-02T00:56:15;2.90;63.00
9425;DHT22;17139;52.140;11.636;2023-04-02T00:58:43;2.70;63.40
9425;DHT22;17139;52.140;11.636;2023-04-02T01:01:18;2.50;63.80
9425;DHT22;17139;52.140;11.636;2023-04-02T01:03:57;2.50;64.10
9425;DHT22;17139;52.140;11.636;2023-04-02T01:06:28;2.40;64.10
9425;DHT22;17139;52.140;11.636;2023-04-02T01:09:15;2.40;64.10
9425;DHT22;17139;52.140;11.636;2023-04-02T01:14:55;2.40;64.10
9425;DHT22;17139;52.140;11.636;2023-04-02T01:17:41;2.50;64.20
9425;DHT22;17139;52.140;11.636;2023-04-02T01:20:42;2.50;63.80
9425;DHT22;17139;52.140;11.636;2023-04-02T01:23:20;2.50;64.10
9425;DHT22;17139;52.140;11.636;2023-04-02T01:25:56;2.40;64.10
9425;DHT22;17139;52.140;11.636;2023-04-02T01:28:27;2.40;64.10
9425;DHT22;17139;52.140;11.636;2023-04-02T01:31:01;2.40;64.10
9425;DHT22;17139;52.140;11.636;2023-04-02T01:33:31;2.40;64.10
9425;DHT22;17139;52.140;11.636;2023-04-02T01:36:09;2.30;64.00
9425;DHT22;17139;52.140;11.636;2023-04-02T01:38:39;2.60;63.70
9425;DHT22;17139;52.140;11.636;2023-04-02T01:41:16;2.60;63.30
9425;DHT22;17139;52.140;11.636;2023-04-02T01:43:51;2.60;63.20
9425;DHT22;17139;52.140;11.636;2023-04-02T01:46:26;2.60;62.90
9425;DHT22;17139;52.140;11.636;2023-04-02T01:48:53;2.40;63.10
9425;DHT22;17139;52.140;11.636;2023-04-02T01:51:29;2.40;63.40
9425;DHT22;17139;52.140;11.636;2023-04-02T01:54:00;2.40;63.40
9425;DHT22;17139;52.140;11.636;2023-04-02T01:56:28;2.40;63.60
9425;DHT22;17139;52.140;11.636;2023-04-02T01:58:56;2.40;63.60
9425;DHT22;17139;52.140;11.636;2023-04-02T02:01:29;2.40;63.60
9425;DHT22;17139;52.140;11.636;2023-04-02T02:03:57;2.40;63.60
9425;DHT22;17139;52.140;11.636;2023-04-02T02:06:24;2.60;63.50
9425;DHT22;17139;52.140;11.636;2023-04-02T02:08:54;2.90;62.50
9425;DHT22;17139;52.140;11.636;2023-04-02T02:11:24;2.80;62.30
9425;DHT22;17139;52.140;11.636;2023-04-02T02:13:55;2.70;62.70
9425;DHT22;17139;52.140;11.636;2023-04-02T02:16:25;2.60;63.00
9425;DHT22;17139;52.140;11.636;2023-04-02T02:18:57;2.50;63.20
9425;DHT22;17139;52.140;11.636;2023-04-02T02:21:31;2.50;63.30
9425;DHT22;17139;52.140;11.636;2023-04-02T02:24:00;2.40;63.30
9425;DHT22;17139;52.140;11.636;2023-04-02T02:26:31;2.40;63.40
9425;DHT22;17139;52.140;11.636;2023-04-02T02:29:02;2.40;63.40
9425;DHT22;17139;52.140;11.636;2023-04-02T02:31:35;2.40;63.40
9425;DHT22;17139;52.140;11.636;2023-04-02T02:34:06;2.30;63.20
9425;DHT22;17139;52.140;11.636;2023-04-02T02:36:42;3.00;62.10
9425;DHT22;17139;52.140;11.636;2023-04-02T02:39:16;2.90;61.80
9425;DHT22;17139;52.140;11.636;2023-04-02T02:41:49;2.60;62.30
9425;DHT22;17139;52.140;11.636;2023-04-02T02:44:21;2.60;62.80
9425;DHT22;17139;52.140;11.636;2023-04-02T02:46:53;2.50;62.90
9425;DHT22;17139;52.140;11.636;2023-04-02T02:49:24;2.50;63.10
9425;DHT22;17139;52.140;11.636;2023-04-02T02:51:57;2.50;63.20
9425;DHT22;17139;52.140;11.636;2023-04-02T02:54:26;2.50;63.20
9425;DHT22;17139;52.140;11.636;2023-04-02T02:56:56;2.40;63.10
9425;DHT22;17139;52.140;11.636;2023-04-02T02:59:26;2.40;63.20
9425;DHT22;17139;52.140;11.636;2023-04-02T03:01:57;3.10;62.10
9425;DHT22;17139;52.140;11.636;2023-04-02T03:04:24;2.90;61.60
9425;DHT22;17139;52.140;11.636;2023-04-02T03:06:56;2.70;61.90
9425;DHT22;17139;52.140;11.636;2023-04-02T03:09:31;2.60;62.40
9425;DHT22;17139;52.140;11.636;2023-04-02T03:12:05;2.60;62.80
9425;DHT22;17139;52.140;11.636;2023-04-02T03:14:37;2.50;62.80
9425;DHT22;17139;52.140;11.636;2023-04-02T03:17:11;2.50;63.00
9425;DHT22;17139;52.140;11.636;2023-04-02T03:19:43;2.50;63.10
9425;DHT22;17139;52.140;11.636;2023-04-02T03:22:15;2.50;63.10
9425;DHT22;17139;52.140;11.636;2023-04-02T03:24:50;2.50;63.00
9425;DHT22;17139;52.140;11.636;2023-04-02T03:27:21;2.50;63.00
9425;DHT22;17139;52.140;11.636;2023-04-02T03:30:00;3.10;61.60
9425;DHT22;17139;52.140;11.636;2023-04-02T03:32:34;3.00;61.30
9425;DHT22;17139;52.140;11.636;2023-04-02T03:35:09;2.70;61.80
9425;DHT22;17139;52.140;11.636;2023-04-02T03:37:45;2.60;62.20
9425;DHT22;17139;52.140;11.636;2023-04-02T03:40:17;2.50;62.30
9425;DHT22;17139;52.140;11.636;2023-04-02T03:42:49;2.50;62.40
9425;DHT22;17139;52.140;11.636;2023-04-02T03:45:21;2.40;62.30
9425;DHT22;17139;52.140;11.636;2023-04-02T03:47:54;2.30;62.30
9425;DHT22;17139;52.140;11.636;2023-04-02T03:50:26;2.30;62.30
9425;DHT22;17139;52.140;11.636;2023-04-02T03:52:56;2.50;62.00
9425;DHT22;17139;52.140;11.636;2023-04-02T03:55:26;2.90;61.00
9425;DHT22;17139;52.140;11.636;2023-04-02T03:57:59;2.80;60.90
9425;DHT22;17139;52.140;11.636;2023-04-02T04:00:33;2.60;61.40
9425;DHT22;17139;52.140;11.636;2023-04-02T04:03:08;2.60;61.80
9425;DHT22;17139;52.140;11.636;2023-04-02T04:05:43;2.50;62.00
9425;DHT22;17139;52.140;11.636;2023-04-02T04:08:15;2.40;62.00
9425;DHT22;17139;52.140;11.636;2023-04-02T04:10:43;2.30;62.00
9425;DHT22;17139;52.140;11.636;2023-04-02T04:13:13;2.30;62.20
9425;DHT22;17139;52.140;11.636;2023-04-02T04:15:47;2.40;62.30
9425;DHT22;17139;52.140;11.636;2023-04-02T04:18:22;3.00;60.80
9425;DHT22;17139;52.140;11.636;2023-04-02T04:21:01;2.80;60.50
9425;DHT22;17139;52.140;11.636;2023-04-02T04:23:31;2.90;60.30
9425;DHT22;17139;52.140;11.636;2023-04-02T04:26:02;2.80;60.30
9425;DHT22;17139;52.140;11.636;2023-04-02T04:28:39;2.60;60.80
9425;DHT22;17139;52.140;11.636;2023-04-02T04:31:14;2.40;61.20
9425;DHT22;17139;52.140;11.636;2023-04-02T04:33:49;2.40;61.60
9425;DHT22;17139;52.140;11.636;2023-04-02T04:36:23;2.40;61.70
9425;DHT22;17139;52.140;11.636;2023-04-02T04:38:54;2.40;61.80
9425;DHT22;17139;52.140;11.636;2023-04-02T04:41:26;2.30;61.80
9425;DHT22;17139;52.140;11.636;2023-04-02T04:44:00;2.30;61.80
9425;DHT22;17139;52.140;11.636;2023-04-02T04:46:32;2.30;61.80
9425;DHT22;17139;52.140;11.636;2023-04-02T04:49:08;2.30;61.90
9425;DHT22;17139;52.140;11.636;2023-04-02T04:51:40;2.30;61.90
9425;DHT22;17139;52.140;11.636;2023-04-02T04:54:10;2.30;61.80
9425;DHT22;17139;52.140;11.636;2023-04-02T04:56:38;2.30;61.80
9425;DHT22;17139;52.140;11.636;2023-04-02T04:59:14;2.30;61.90
9425;DHT22;17139;52.140;11.636;2023-04-02T05:01:47;2.30;62.10
9425;DHT22;17139;52.140;11.636;2023-04-02T05:04:21;2.30;61.90
9425;DHT22;17139;52.140;11.636;2023-04-02T05:06:53;2.30;61.70
9425;DHT22;17139;52.140;11.636;2023-04-02T05:09:26;2.30;61.70
9425;DHT22;17139;52.140;11.636;2023-04-02T05:12:02;2.30;61.70
9425;DHT22;17139;52.140;11.636;2023-04-02T05:14:34;2.30;61.70
9425;DHT22;17139;52.140;11.636;2023-04-02T05:17:06;2.20;61.40
9425;DHT22;17139;52.140;11.636;2023-04-02T05:19:41;2.50;60.80
9425;DHT22;17139;52.140;11.636;2023-04-02T05:22:19;2.40;60.40
9425;DHT22;17139;52.140;11.636;2023-04-02T05:24:57;2.30;60.70
9425;DHT22;17139;52.140;11.636;2023-04-02T05:27:33;2.30;61.10
9425;DHT22;17139;52.140;11.636;2023-04-02T05:30:08;2.20;61.20
9425;DHT22;17139;52.140;11.636;2023-04-02T05:32:40;2.20;61.30
9425;DHT22;17139;52.140;11.636;2023-04-02T05:35:15;2.30;61.50
9425;DHT22;17139;52.140;11.636;2023-04-02T05:37:44;2.30;61.40
9425;DHT22;17139;52.140;11.636;2023-04-02T05:40:14;2.30;61.40
9425;DHT22;17139;52.140;11.636;2023-04-02T05:42:48;2.30;61.30
9425;DHT22;17139;52.140;11.636;2023-04-02T05:45:25;2.80;60.50
9425;DHT22;17139;52.140;11.636;2023-04-02T05:47:56;3.30;59.10
9425;DHT22;17139;52.140;11.636;2023-04-02T05:50:31;3.00;59.30
9425;DHT22;17139;52.140;11.636;2023-04-02T05:53:05;2.80;59.80
9425;DHT22;17139;52.140;11.636;2023-04-02T05:55:39;2.60;60.30
9425;DHT22;17139;52.140;11.636;2023-04-02T05:58:15;2.50;60.60
9425;DHT22;17139;52.140;11.636;2023-04-02T06:03:52;2.60;61.30
9425;DHT22;17139;52.140;11.636;2023-04-02T06:06:42;2.60;61.40
9425;DHT22;17139;52.140;11.636;2023-04-02T06:09:14;2.90;60.90
9425;DHT22;17139;52.140;11.636;2023-04-02T06:11:45;2.80;60.50
9425;DHT22;17139;52.140;11.636;2023-04-02T06:14:15;2.90;60.50
9425;DHT22;17139;52.140;11.636;2023-04-02T06:16:43;2.90;60.50
9425;DHT22;17139;52.140;11.636;2023-04-02T06:19:17;2.80;60.70
9425;DHT22;17139;52.140;11.636;2023-04-02T06:21:48;2.80;60.80
9425;DHT22;17139;52.140;11.636;2023-04-02T06:24:20;2.80;61.00
9425;DHT22;17139;52.140;11.636;2023-04-02T06:26:52;2.80;61.10
9425;DHT22;17139;52.140;11.636;2023-04-02T06:29:26;2.80;61.10
9425;DHT22;17139;52.140;11.636;2023-04-02T06:31:58;2.80;61.20
9425;DHT22;17139;52.140;11.636;2023-04-02T06:34:28;2.80;61.10
9425;DHT22;17139;52.140;11.636;2023-04-02T06:36:58;2.80;61.20
9425;DHT22;17139;52.140;11.636;2023-04-02T06:39:27;3.30;60.30
9425;DHT22;17139;52.140;11.636;2023-04-02T06:41:58;3.80;58.90
9425;DHT22;17139;52.140;11.636;2023-04-02T06:44:28;3.60;59.20
9425;DHT22;17139;52.140;11.636;2023-04-02T06:47:00;3.40;59.90
9425;DHT22;17139;52.140;11.636;2023-04-02T06:49:33;3.30;60.30
9425;DHT22;17139;52.140;11.636;2023-04-02T06:52:05;3.60;60.20
9425;DHT22;17139;52.140;11.636;2023-04-02T06:54:34;3.50;60.00
9425;DHT22;17139;52.140;11.636;2023-04-02T06:57:03;3.50;60.00
9425;DHT22;17139;52.140;11.636;2023-04-02T06:59:31;3.40;59.90
9425;DHT22;17139;52.140;11.636;2023-04-02T07:02:00;3.40;60.10
9425;DHT22;17139;52.140;11.636;2023-04-02T07:04:28;3.30;60.20
9425;DHT22;17139;52.140;11.636;2023-04-02T07:06:56;3.20;60.50
9425;DHT22;17139;52.140;11.636;2023-04-02T07:09:24;3.10;60.50
9425;DHT22;17139;52.140;11.636;2023-04-02T07:11:51;3.20;60.80
9425;DHT22;17139;52.140;11.636;2023-04-02T07:14:18;3.10;60.70
9425;DHT22;17139;52.140;11.636;2023-04-02T07:16:45;3.10;60.80
9425;DHT22;17139;52.140;11.636;2023-04-02T07:19:16;3.00;60.70
9425;DHT22;17139;52.140;11.636;2023-04-02T07:21:44;3.00;60.80
9425;DHT22;17139;52.140;11.636;2023-04-02T07:24:12;3.00;60.80
9425;DHT22;17139;52.140;11.636;2023-04-02T07:26:40;3.30;60.10
9425;DHT22;17139;52.140;11.636;2023-04-02T07:29:08;3.70;59.00
9425;DHT22;17139;52.140;11.636;2023-04-02T07:31:37;3.50;59.10
9425;DHT22;17139;52.140;11.636;2023-04-02T07:34:06;3.30;59.60
9425;DHT22;17139;52.140;11.636;2023-04-02T07:36:33;3.30;60.00
9425;DHT22;17139;52.140;11.636;2023-04-02T07:39:01;3.20;60.20
9425;DHT22;17139;52.140;11.636;2023-04-02T07:41:28;3.10;60.20
9425;DHT22;17139;52.140;11.636;2023-04-02T07:43:57;3.10;60.20
9425;DHT22;17139;52.140;11.636;2023-04-02T07:46:24;3.10;60.20
9425;DHT22;17139;52.140;11.636;2023-04-02T07:48:51;3.50;59.50
9425;DHT22;17139;52.140;11.636;2023-04-02T07:51:20;3.40;59.30
9425;DHT22;17139;52.140;11.636;2023-04-02T07:53:47;3.30;59.60
9425;DHT22;17139;52.140;11.636;2023-04-02T07:56:18;3.30;59.80
9425;DHT22;17139;52.140;11.636;2023-04-02T07:58:46;3.20;59.90
9425;DHT22;17139;52.140;11.636;2023-04-02T08:01:17;3.20;60.00
9425;DHT22;17139;52.140;11.636;2023-04-02T08:03:45;3.20;60.10
9425;DHT22;17139;52.140;11.636;2023-04-02T08:06:13;3.20;60.10
9425;DHT22;17139;52.140;11.636;2023-04-02T08:08:40;3.60;59.70
9425;DHT22;17139;52.140;11.636;2023-04-02T08:11:08;3.60;59.50
9425;DHT22;17139;52.140;11.636;2023-04-02T08:13:35;3.50;59.70
9425;DHT22;17139;52.140;11.636;2023-04-02T08:16:04;3.50;60.00
9425;DHT22;17139;52.140;11.636;2023-04-02T08:18:33;3.50;60.00
9425;DHT22;17139;52.140;11.636;2023-04-02T08:21:00;3.70;59.70
9425;DHT22;17139;52.140;11.636;2023-04-02T08:23:28;4.00;58.50
9425;DHT22;17139;52.140;11.636;2023-04-02T08:25:56;3.90;58.50
9425;DHT22;17139;52.140;11.636;2023-04-02T08:28:23;3.80;58.90
9425;DHT22;17139;52.140;11.636;2023-04-02T08:30:50;3.70;59.30
9425;DHT22;17139;52.140;11.636;2023-04-02T08:33:17;3.60;59.50
9425;DHT22;17139;52.140;11.636;2023-04-02T08:35:48;3.60;59.60
9425;DHT22;17139;52.140;11.636;2023-04-02T08:38:17;3.50;59.40
9425;DHT22;17139;52.140;11.636;2023-04-02T08:40:47;3.50;59.50
9425;DHT22;17139;52.140;11.636;2023-04-02T08:43:25;3.60;59.80
9425;DHT22;17139;52.140;11.636;2023-04-02T08:46:03;3.80;59.70
9425;DHT22;17139;52.140;11.636;2023-04-02T08:48:34;4.00;58.90
9425;DHT22;17139;52.140;11.636;2023-04-02T08:51:05;4.00;59.00
9425;DHT22;17139;52.140;11.636;2023-04-02T08:53:36;3.90;59.00
9425;DHT22;17139;52.140;11.636;2023-04-02T08:56:08;3.90;59.30
9425;DHT22;17139;52.140;11.636;2023-04-02T08:58:44;3.90;59.50
9425;DHT22;17139;52.140;11.636;2023-04-02T09:01:23;3.90;59.60
9425;DHT22;17139;52.140;11.636;2023-04-02T09:03:54;4.00;59.60
9425;DHT22;17139;52.140;11.636;2023-04-02T09:06:25;4.00;59.60
9425;DHT22;17139;52.140;11.636;2023-04-02T09:08:54;4.10;59.70
9425;DHT22;17139;52.140;11.636;2023-04-02T09:11:23;4.10;59.50
9425;DHT22;17139;52.140;11.636;2023-04-02T09:13:55;4.20;59.60
9425;DHT22;17139;52.140;11.636;2023-04-02T09:16:33;4.20;59.50
9425;DHT22;17139;52.140;11.636;2023-04-02T09:19:00;4.20;59.20
9425;DHT22;17139;52.140;11.636;2023-04-02T09:21:35;4.20;59.40
9425;DHT22;17139;52.140;11.636;2023-04-02T09:24:03;4.30;59.50
9425;DHT22;17139;52.140;11.636;2023-04-02T09:26:32;4.30;59.50
9425;DHT22;17139;52.140;11.636;2023-04-02T09:29:03;4.40;59.30
9425;DHT22;17139;52.140;11.636;2023-04-02T09:31:43;4.40;59.30
9425;DHT22;17139;52.140;11.636;2023-04-02T09:34:28;4.80;58.10
9425;DHT22;17139;52.140;11.636;2023-04-02T09:37:19;4.70;58.30
9425;DHT22;17139;52.140;11.636;2023-04-02T09:39:47;4.50;58.60
9425;DHT22;17139;52.140;11.636;2023-04-02T09:42:30;4.40;58.80
9425;DHT22;17139;52.140;11.636;2023-04-02T09:45:13;4.40;59.10
9425;DHT22;17139;52.140;11.636;2023-04-02T09:47:40;4.40;59.00
9425;DHT22;17139;52.140;11.636;2023-04-02T09:50:22;4.50;59.10
9425;DHT22;17139;52.140;11.636;2023-04-02T09:52:51;4.60;59.10
9425;DHT22;17139;52.140;11.636;2023-04-02T09:55:22;4.70;59.20
9425;DHT22;17139;52.140;11.636;2023-04-02T09:58:06;4.70;59.00
9425;DHT22;17139;52.140;11.636;2023-04-02T10:00:34;4.90;59.20
9425;DHT22;17139;52.140;11.636;2023-04-02T10:03:05;4.90;59.00
9425;DHT22;17139;52.140;11.636;2023-04-02T10:05:33;4.90;58.80
9425;DHT22;17139;52.140;11.636;2023-04-02T10:08:17;4.90;58.70
9425;DHT22;17139;52.140;11.636;2023-04-02T10:10:47;5.70;56.60
9425;DHT22;17139;52.140;11.636;2023-04-02T10:13:19;5.60;57.50
9425;DHT22;17139;52.140;11.636;2023-04-02T10:15:52;5.60;58.00
9425;DHT22;17139;52.140;11.636;2023-04-02T10:18:35;5.60;58.40
9425;DHT22;17139;52.140;11.636;2023-04-02T10:21:04;5.60;58.10
9425;DHT22;17139;52.140;11.636;2023-04-02T10:23:33;5.60;58.10
9425;DHT22;17139;52.140;11.636;2023-04-02T10:26:13;5.60;58.20
9425;DHT22;17139;52.140;11.636;2023-04-02T10:28:54;5.70;58.40
9425;DHT22;17139;52.140;11.636;2023-04-02T10:31:31;5.70;58.40
9425;DHT22;17139;52.140;11.636;2023-04-02T10:34:01;5.90;58.70
9425;DHT22;17139;52.140;11.636;2023-04-02T10:36:43;7.00;54.60
9425;DHT22;17139;52.140;11.636;2023-04-02T10:39:19;6.80;55.30
9425;DHT22;17139;52.140;11.636;2023-04-02T10:41:52;7.10;53.50
9425;DHT22;17139;52.140;11.636;2023-04-02T10:47:24;6.50;55.80
9425;DHT22;17139;52.140;11.636;2023-04-02T10:50:01;6.20;57.20
9425;DHT22;17139;52.140;11.636;2023-04-02T10:52:35;6.10;58.00
9425;DHT22;17139;52.140;11.636;2023-04-02T10:55:13;6.10;57.90
9425;DHT22;17139;52.140;11.636;2023-04-02T10:57:43;6.20;57.70
9425;DHT22;17139;52.140;11.636;2023-04-02T11:00:17;6.20;57.50
9425;DHT22;17139;52.140;11.636;2023-04-02T11:02:51;6.20;57.20
9425;DHT22;17139;52.140;11.636;2023-04-02T11:05:25;6.30;57.40
9425;DHT22;17139;52.140;11.636;2023-04-02T11:07:59;6.90;54.40
9425;DHT22;17139;52.140;11.636;2023-04-02T11:10:32;7.40;52.70
9425;DHT22;17139;52.140;11.636;2023-04-02T11:13:04;7.30;54.30
9425;DHT22;17139;52.140;11.636;2023-04-02T11:15:34;7.10;54.90
9425;DHT22;17139;52.140;11.636;2023-04-02T11:18:02;6.90;55.00
9425;DHT22;17139;52.140;11.636;2023-04-02T11:20:53;6.80;55.50
9425;DHT22;17139;52.140;11.636;2023-04-02T11:23:24;6.70;55.90
9425;DHT22;17139;52.140;11.636;2023-04-02T11:29:16;6.50;55.90
9425;DHT22;17139;52.140;11.636;2023-04-02T11:31:46;6.30;57.20
9425;DHT22;17139;52.140;11.636;2023-04-02T11:34:16;6.80;54.20
9425;DHT22;17139;52.140;11.636;2023-04-02T11:37:07;6.60;55.00
9425;DHT22;17139;52.140;11.636;2023-04-02T11:39:47;6.50;55.60
9425;DHT22;17139;52.140;11.636;2023-04-02T11:42:34;6.50;55.90
9425;DHT22;17139;52.140;11.636;2023-04-02T11:48:27;6.50;56.30
9425;DHT22;17139;52.140;11.636;2023-04-02T11:50:54;6.60;56.00
9425;DHT22;17139;52.140;11.636;2023-04-02T11:53:25;6.70;56.10
9425;DHT22;17139;52.140;11.636;2023-04-02T11:56:07;6.70;55.90
9425;DHT22;17139;52.140;11.636;2023-04-02T11:58:49;6.60;56.00
9425;DHT22;17139;52.140;11.636;2023-04-02T12:01:41;6.60;56.20
9425;DHT22;17139;52.140;11.636;2023-04-02T12:05:00;6.60;56.20
9425;DHT22;17139;52.140;11.636;2023-04-02T12:07:44;6.70;55.30
9425;DHT22;17139;52.140;11.636;2023-04-02T12:10:22;6.90;54.00
9425;DHT22;17139;52.140;11.636;2023-04-02T12:12:50;6.70;55.10
9425;DHT22;17139;52.140;11.636;2023-04-02T12:15:41;6.70;55.60
9425;DHT22;17139;52.140;11.636;2023-04-02T12:18:13;6.90;55.90
9425;DHT22;17139;52.140;11.636;2023-04-02T12:20:46;7.00;55.80
9425;DHT22;17139;52.140;11.636;2023-04-02T12:23:18;7.20;55.80
9425;DHT22;17139;52.140;11.636;2023-04-02T12:25:54;7.40;55.80
9425;DHT22;17139;52.140;11.636;2023-04-02T12:28:21;7.70;55.50
9425;DHT22;17139;52.140;11.636;2023-04-02T12:30:50;7.70;54.90
9425;DHT22;17139;52.140;11.636;2023-04-02T12:33:29;7.80;54.70
9425;DHT22;17139;52.140;11.636;2023-04-02T12:35:59;7.90;54.20
9425;DHT22;17139;52.140;11.636;2023-04-02T12:38:28;7.70;54.60
9425;DHT22;17139;52.140;11.636;2023-04-02T12:40:58;7.60;55.00
9425;DHT22;17139;52.140;11.636;2023-04-02T12:43:27;7.80;55.10
9425;DHT22;17139;52.140;11.636;2023-04-02T12:45:58;8.00;55.40
9425;DHT22;17139;52.140;11.636;2023-04-02T12:48:26;8.10;55.20
9425;DHT22;17139;52.140;11.636;2023-04-02T12:50:54;8.10;55.20
9425;DHT22;17139;52.140;11.636;2023-04-02T12:53:25;8.20;54.90
9425;DHT22;17139;52.140;11.636;2023-04-02T12:55:54;8.00;54.50
9425;DHT22;17139;52.140;11.636;2023-04-02T12:58:27;8.40;52.70
9425;DHT22;17139;52.140;11.636;2023-04-02T13:01:25;8.20;54.10
9425;DHT22;17139;52.140;11.636;2023-04-02T13:04:01;8.20;54.40
9425;DHT22;17139;52.140;11.636;2023-04-02T13:06:28;8.70;51.90
9425;DHT22;17139;52.140;11.636;2023-04-02T13:08:57;8.40;53.30
9425;DHT22;17139;52.140;11.636;2023-04-02T13:11:33;8.10;53.80
9425;DHT22;17139;52.140;11.636;2023-04-02T13:14:02;7.90;54.20
9425;DHT22;17139;52.140;11.636;2023-04-02T13:16:34;7.90;54.50
9425;DHT22;17139;52.140;11.636;2023-04-02T13:19:21;7.90;54.90
9425;DHT22;17139;52.140;11.636;2023-04-02T13:21:49;8.00;54.00
9425;DHT22;17139;52.140;11.636;2023-04-02T13:24:18;7.80;54.10
9425;DHT22;17139;52.140;11.636;2023-04-02T13:26:46;7.70;54.30
9425;DHT22;17139;52.140;11.636;2023-04-02T13:29:23;7.70;54.30
9425;DHT22;17139;52.140;11.636;2023-04-02T13:31:54;7.70;54.30
9425;DHT22;17139;52.140;11.636;2023-04-02T13:34:22;7.70;54.00
9425;DHT22;17139;52.140;11.636;2023-04-02T13:36:49;7.70;54.00
9425;DHT22;17139;52.140;11.636;2023-04-02T13:39:16;7.70;53.90
9425;DHT22;17139;52.140;11.636;2023-04-02T13:41:45;7.60;54.10
9425;DHT22;17139;52.140;11.636;2023-04-02T13:44:23;7.60;54.40
9425;DHT22;17139;52.140;11.636;2023-04-02T13:46:53;7.60;53.90
9425;DHT22;17139;52.140;11.636;2023-04-02T13:49:21;7.60;53.90
9425;DHT22;17139;52.140;11.636;2023-04-02T13:51:50;7.50;53.90
9425;DHT22;17139;52.140;11.636;2023-04-02T13:54:22;7.40;54.10
9425;DHT22;17139;52.140;11.636;2023-04-02T13:56:52;7.30;54.30
9425;DHT22;17139;52.140;11.636;2023-04-02T13:59:20;7.40;54.90
9425;DHT22;17139;52.140;11.636;2023-04-02T14:01:48;7.60;54.80
9425;DHT22;17139;52.140;11.636;2023-04-02T14:04:22;7.80;54.50
9425;DHT22;17139;52.140;11.636;2023-04-02T14:07:16;7.80;54.10
9425;DHT22;17139;52.140;11.636;2023-04-02T14:09:59;7.80;54.10
9425;DHT22;17139;52.140;11.636;2023-04-02T14:12:44;7.80;54.10
9425;DHT22;17139;52.140;11.636;2023-04-02T14:15:26;7.70;54.00
9425;DHT22;17139;52.140;11.636;2023-04-02T14:18:15;7.70;54.10
9425;DHT22;17139;52.140;11.636;2023-04-02T14:20:53;7.80;54.30
9425;DHT22;17139;52.140;11.636;2023-04-02T14:23:33;7.80;54.00
9425;DHT22;17139;52.140;11.636;2023-04-02T14:26:11;7.70;53.30
9425;DHT22;17139;52.140;11.636;2023-04-02T14:28:46;7.70;53.70
9425;DHT22;17139;52.140;11.636;2023-04-02T14:31:17;7.70;53.80
9425;DHT22;17139;52.140;11.636;2023-04-02T14:33:52;8.00;52.10
9425;DHT22;17139;52.140;11.636;2023-04-02T14:36:30;8.40;51.00
9425;DHT22;17139;52.140;11.636;2023-04-02T14:39:06;8.10;52.10
9425;DHT22;17139;52.140;11.636;2023-04-02T14:41:40;8.00;53.10
9425;DHT22;17139;52.140;11.636;2023-04-02T14:44:10;8.00;53.60
9425;DHT22;17139;52.140;11.636;2023-04-02T14:46:38;8.00;53.70
9425;DHT22;17139;52.140;11.636;2023-04-02T14:49:17;7.90;53.30
9425;DHT22;17139;52.140;11.636;2023-04-02T14:51:49;7.70;53.10
9425;DHT22;17139;52.140;11.636;2023-04-02T14:54:23;7.60;53.60
9425;DHT22;17139;52.140;11.636;2023-04-02T14:56:57;7.50;53.60
9425;DHT22;17139;52.140;11.636;2023-04-02T14:59:28;7.50;53.70
9425;DHT22;17139;52.140;11.636;2023-04-02T15:02:00;8.10;51.70
9425;DHT22;17139;52.140;11.636;2023-04-02T15:04:32;7.80;52.20
9425;DHT22;17139;52.140;11.636;2023-04-02T15:07:10;7.60;52.80
9425;DHT22;17139;52.140;11.636;2023-04-02T15:09:43;7.50;53.10
9425;DHT22;17139;52.140;11.636;2023-04-02T15:12:18;7.50;53.20
9425;DHT22;17139;52.140;11.636;2023-04-02T15:14:49;7.40;53.40
9425;DHT22;17139;52.140;11.636;2023-04-02T15:17:16;7.40;53.50
9425;DHT22;17139;52.140;11.636;2023-04-02T15:19:45;7.30;53.30
9425;DHT22;17139;52.140;11.636;2023-04-02T15:22:31;7.20;53.10
9425;DHT22;17139;52.140;11.636;2023-04-02T15:25:08;7.10;53.10
9425;DHT22;17139;52.140;11.636;2023-04-02T15:27:53;7.00;53.40
9425;DHT22;17139;52.140;11.636;2023-04-02T15:30:24;7.00;53.40
9425;DHT22;17139;52.140;11.636;2023-04-02T15:32:53;7.00;53.60
9425;DHT22;17139;52.140;11.636;2023-04-02T15:35:28;7.20;54.00
9425;DHT22;17139;52.140;11.636;2023-04-02T15:38:03;7.70;52.40
9425;DHT22;17139;52.140;11.636;2023-04-02T15:40:47;8.10;51.30
9425;DHT22;17139;52.140;11.636;2023-04-02T15:43:21;7.80;52.00
9425;DHT22;17139;52.140;11.636;2023-04-02T15:45:58;7.50;52.80
9425;DHT22;17139;52.140;11.636;2023-04-02T15:49:01;7.30;53.00
9425;DHT22;17139;52.140;11.636;2023-04-02T15:51:47;7.20;53.20
9425;DHT22;17139;52.140;11.636;2023-04-02T15:54:35;7.10;53.50
9425;DHT22;17139;52.140;11.636;2023-04-02T15:57:14;7.00;53.40
9425;DHT22;17139;52.140;11.636;2023-04-02T15:59:58;7.00;53.60
9425;DHT22;17139;52.140;11.636;2023-04-02T16:02:41;6.90;53.50
9425;DHT22;17139;52.140;11.636;2023-04-02T16:05:20;6.90;53.70
9425;DHT22;17139;52.140;11.636;2023-04-02T16:08:23;6.80;53.50
9425;DHT22;17139;52.140;11.636;2023-04-02T16:10:55;6.80;53.60
9425;DHT22;17139;52.140;11.636;2023-04-02T16:13:28;6.80;53.80
9425;DHT22;17139;52.140;11.636;2023-04-02T16:16:02;6.70;53.30
9425;DHT22;17139;52.140;11.636;2023-04-02T16:18:37;6.70;53.40
9425;DHT22;17139;52.140;11.636;2023-04-02T16:21:06;6.60;53.10
9425;DHT22;17139;52.140;11.636;2023-04-02T16:23:37;6.50;52.90
9425;DHT22;17139;52.140;11.636;2023-04-02T16:29:07;6.40;52.80
9425;DHT22;17139;52.140;11.636;2023-04-02T16:31:40;6.40;53.20
9425;DHT22;17139;52.140;11.636;2023-04-02T16:34:17;6.40;53.50
9425;DHT22;17139;52.140;11.636;2023-04-02T16:36:52;6.40;53.30
9425;DHT22;17139;52.140;11.636;2023-04-02T16:39:30;6.40;53.40
9425;DHT22;17139;52.140;11.636;2023-04-02T16:42:08;6.40;52.80
9425;DHT22;17139;52.140;11.636;2023-04-02T16:44:46;6.50;52.10